createdAt,value
2022-09-17T00:00:04.318Z,-3.65
2022-09-17T00:01:04.370Z,-3.66
2022-09-17T00:02:04.376Z,-3.63
2022-09-17T00:03:10.328Z,-3.65
2022-09-17T00:04:16.260Z,-3.65
2022-09-17T00:05:16.955Z,-3.62
2022-09-17T00:06:20.344Z,-3.64
2022-09-17T00:07:20.443Z,-3.64
2022-09-17T00:08:20.471Z,-3.64
2022-09-17T00:09:20.507Z,-3.65
2022-09-17T00:10:20.516Z,-3.68
2022-09-17T00:11:20.538Z,-3.67
2022-09-17T00:12:20.511Z,-3.70
2022-09-17T00:13:20.569Z,-3.70
2022-09-17T00:14:20.522Z,-3.71
2022-09-17T00:15:20.612Z,-3.72
2022-09-17T00:16:20.659Z,-3.74
2022-09-17T00:17:20.633Z,-3.74
2022-09-17T00:18:20.608Z,-3.74
2022-09-17T00:19:26.548Z,-3.72
2022-09-17T00:20:32.566Z,-3.72
2022-09-17T00:21:32.723Z,-3.71
2022-09-17T00:22:32.699Z,-3.70
2022-09-17T00:23:32.725Z,-3.69
2022-09-17T00:24:32.731Z,-3.68
2022-09-17T00:25:32.789Z,-3.68
2022-09-17T00:26:32.778Z,-3.68
2022-09-17T00:27:32.807Z,-3.67
2022-09-17T00:28:32.772Z,-3.68
2022-09-17T00:29:32.818Z,-3.67
2022-09-17T00:30:32.820Z,-3.67
2022-09-17T00:31:32.887Z,-3.65
2022-09-17T00:32:32.826Z,-3.64
2022-09-17T00:33:32.858Z,-3.65
2022-09-17T00:34:32.880Z,-3.65
2022-09-17T00:35:32.939Z,-3.64
2022-09-17T00:36:32.920Z,-3.64
2022-09-17T00:37:32.932Z,-3.64
2022-09-17T00:38:32.933Z,-3.66
2022-09-17T00:39:32.967Z,-3.66
2022-09-17T00:40:33.058Z,-3.66
2022-09-17T00:41:33.009Z,-3.67
2022-09-17T00:42:33.000Z,-3.68
2022-09-17T00:43:33.028Z,-3.69
2022-09-17T00:44:33.018Z,-3.74
2022-09-17T00:45:33.095Z,-3.75
2022-09-17T00:46:33.144Z,-3.77
2022-09-17T00:47:33.126Z,-3.80
2022-09-17T00:48:33.086Z,-3.83
2022-09-17T00:49:33.125Z,-3.86
2022-09-17T00:50:33.157Z,-3.92
2022-09-17T00:51:33.156Z,-3.95
2022-09-17T00:52:33.142Z,-3.98
2022-09-17T00:53:33.187Z,-4.02
2022-09-17T00:54:33.166Z,-4.06
2022-09-17T00:55:33.238Z,-4.07
2022-09-17T00:56:33.258Z,-4.09
2022-09-17T00:57:33.694Z,-4.12
2022-09-17T00:58:35.801Z,-4.14
2022-09-17T00:59:38.177Z,-4.19
2022-09-17T01:00:43.259Z,-4.21
2022-09-17T01:01:43.339Z,-4.22
2022-09-17T01:02:43.296Z,-4.25
2022-09-17T01:03:43.329Z,-4.26
2022-09-17T01:04:43.344Z,-4.27
2022-09-17T01:05:43.401Z,-4.27
2022-09-17T01:06:43.421Z,-4.28
2022-09-17T01:07:43.403Z,-4.32
2022-09-17T01:08:43.379Z,-4.31
2022-09-17T01:09:43.418Z,-4.32
2022-09-17T01:10:43.896Z,-4.34
2022-09-17T01:11:43.459Z,-4.35
2022-09-17T01:12:43.433Z,-4.36
2022-09-17T01:13:43.458Z,-4.36
2022-09-17T01:14:43.469Z,-4.36
2022-09-17T01:15:43.551Z,-4.36
2022-09-17T01:16:43.510Z,-4.35
2022-09-17T01:17:49.394Z,-4.34
2022-09-17T01:18:55.417Z,-4.29
2022-09-17T01:19:55.535Z,-4.28
2022-09-17T01:20:55.529Z,-4.25
2022-09-17T01:21:55.584Z,-4.22
2022-09-17T01:22:55.549Z,-4.17
2022-09-17T01:23:55.645Z,-4.16
2022-09-17T01:24:55.605Z,-4.13
2022-09-17T01:25:55.639Z,-4.14
2022-09-17T01:26:55.662Z,-4.14
2022-09-17T01:27:55.702Z,-4.13
2022-09-17T01:28:55.681Z,-4.12
2022-09-17T01:30:01.609Z,-4.12
2022-09-17T01:31:01.827Z,-4.10
2022-09-17T01:32:01.731Z,-4.10
2022-09-17T01:33:01.767Z,-4.09
2022-09-17T01:34:01.755Z,-4.07
2022-09-17T01:35:06.695Z,-4.07
2022-09-17T01:36:06.802Z,-4.05
2022-09-17T01:37:06.795Z,-4.05
2022-09-17T01:38:06.814Z,-4.05
2022-09-17T01:39:06.788Z,-4.06
2022-09-17T01:40:06.906Z,-4.06
2022-09-17T01:41:06.815Z,-4.07
2022-09-17T01:42:06.837Z,-4.06
2022-09-17T01:43:06.833Z,-4.05
2022-09-17T01:44:06.847Z,-4.06
2022-09-17T01:45:06.858Z,-4.07
2022-09-17T01:46:06.956Z,-4.07
2022-09-17T01:47:06.893Z,-4.07
2022-09-17T01:48:06.888Z,-4.07
2022-09-17T01:49:06.873Z,-4.05
2022-09-17T01:50:12.816Z,-4.05
2022-09-17T01:51:18.834Z,-4.02
2022-09-17T01:52:18.970Z,-4.01
2022-09-17T01:53:24.814Z,-4.04
2022-09-17T01:54:24.949Z,-4.01
2022-09-17T01:55:24.962Z,-4.04
2022-09-17T01:56:24.975Z,-4.05
2022-09-17T01:57:25.018Z,-4.05
2022-09-17T01:58:25.058Z,-4.07
2022-09-17T01:59:24.990Z,-4.08
2022-09-17T02:00:25.056Z,-4.10
2022-09-17T02:01:25.115Z,-4.13
2022-09-17T02:02:25.071Z,-4.15
2022-09-17T02:03:25.076Z,-4.16
2022-09-17T02:04:25.083Z,-4.14
2022-09-17T02:05:25.083Z,-4.19
2022-09-17T02:06:25.097Z,-4.19
2022-09-17T02:07:25.106Z,-4.20
2022-09-17T02:08:25.114Z,-4.21
2022-09-17T02:09:25.107Z,-4.21
2022-09-17T02:10:25.197Z,-4.20
2022-09-17T02:11:25.161Z,-4.20
2022-09-17T02:12:25.167Z,-4.22
2022-09-17T02:15:19.128Z,-4.21
2022-09-17T02:16:19.306Z,-4.16
2022-09-17T02:17:19.196Z,-4.14
2022-09-17T02:18:19.258Z,-4.14
2022-09-17T02:19:19.221Z,-4.14
2022-09-17T02:20:22.800Z,-4.12
2022-09-17T02:21:19.249Z,-4.10
2022-09-17T02:22:19.278Z,-4.11
2022-09-17T02:23:19.301Z,-4.12
2022-09-17T02:24:19.313Z,-4.12
2022-09-17T02:25:19.326Z,-4.10
2022-09-17T02:26:19.317Z,-4.12
2022-09-17T02:27:19.323Z,-4.13
2022-09-17T02:28:19.390Z,-4.13
2022-09-17T02:29:19.336Z,-4.14
2022-09-17T02:30:19.387Z,-4.14
2022-09-17T02:31:19.397Z,-4.15
2022-09-17T02:32:19.422Z,-4.16
2022-09-17T02:33:19.406Z,-4.22
2022-09-17T02:34:19.435Z,-4.21
2022-09-17T02:35:19.463Z,-4.22
2022-09-17T02:36:19.524Z,-4.21
2022-09-17T02:37:19.466Z,-4.22
2022-09-17T02:38:19.521Z,-4.21
2022-09-17T02:39:19.490Z,-4.21
2022-09-17T02:40:19.614Z,-4.21
2022-09-17T02:41:19.541Z,-4.16
2022-09-17T02:42:19.554Z,-4.19
2022-09-17T02:43:19.598Z,-4.19
2022-09-17T02:44:19.586Z,-4.16
2022-09-17T02:45:25.509Z,-4.17
2022-09-17T02:46:25.703Z,-4.19
2022-09-17T02:47:25.624Z,-4.15
2022-09-17T02:48:25.686Z,-4.15
2022-09-17T02:49:25.656Z,-4.13
2022-09-17T02:50:25.702Z,-4.11
2022-09-17T02:51:25.696Z,-4.11
2022-09-17T02:52:25.727Z,-4.12
2022-09-17T02:53:25.715Z,-4.11
2022-09-17T02:54:25.739Z,-4.11
2022-09-17T02:55:25.727Z,-4.14
2022-09-17T02:56:25.753Z,-4.12
2022-09-17T02:57:25.733Z,-4.14
2022-09-17T02:58:25.821Z,-4.15
2022-09-17T02:59:25.754Z,-4.14
2022-09-17T03:00:25.791Z,-4.16
2022-09-17T03:01:25.773Z,-4.15
2022-09-17T03:02:25.816Z,-4.20
2022-09-17T03:03:25.789Z,-4.22
2022-09-17T03:04:25.868Z,-4.24
2022-09-17T03:05:25.819Z,-4.28
2022-09-17T03:06:25.841Z,-4.31
2022-09-17T03:07:25.835Z,-4.34
2022-09-17T03:08:25.906Z,-4.36
2022-09-17T03:09:25.829Z,-4.39
2022-09-17T03:10:25.885Z,-4.41
2022-09-17T03:11:25.968Z,-4.42
2022-09-17T03:12:30.856Z,-4.46
2022-09-17T03:13:34.771Z,-4.50
2022-09-17T03:14:34.876Z,-4.51
2022-09-17T03:15:34.857Z,-4.53
2022-09-17T03:16:34.922Z,-4.57
2022-09-17T03:17:34.855Z,-4.56
2022-09-17T03:18:34.895Z,-4.59
2022-09-17T03:19:34.853Z,-4.64
2022-09-17T03:20:34.852Z,-4.65
2022-09-17T03:21:34.850Z,-4.66
2022-09-17T03:22:40.762Z,-4.67
2022-09-17T03:23:45.814Z,-4.69
2022-09-17T03:24:45.933Z,-4.68
2022-09-17T03:25:45.895Z,-4.67
2022-09-17T03:26:45.916Z,-4.65
2022-09-17T03:27:45.896Z,-4.65
2022-09-17T03:28:45.967Z,-4.60
2022-09-17T03:29:45.917Z,-4.58
2022-09-17T03:30:45.981Z,-4.55
2022-09-17T03:31:45.966Z,-4.50
2022-09-17T03:32:45.973Z,-4.44
2022-09-17T03:33:45.961Z,-4.39
2022-09-17T03:34:45.984Z,-4.32
2022-09-17T03:35:45.996Z,-4.26
2022-09-17T03:36:46.032Z,-4.26
2022-09-17T03:37:45.986Z,-4.28
2022-09-17T03:38:46.148Z,-4.29
2022-09-17T03:39:45.998Z,-4.29
2022-09-17T03:40:46.073Z,-4.26
2022-09-17T03:41:46.016Z,-4.23
2022-09-17T03:42:46.058Z,-4.20
2022-09-17T03:43:46.078Z,-4.20
2022-09-17T03:45:50.039Z,-4.21
2022-09-17T03:46:50.130Z,-4.21
2022-09-17T03:47:50.070Z,-4.25
2022-09-17T03:48:50.126Z,-4.24
2022-09-17T03:49:50.089Z,-4.25
2022-09-17T03:50:50.112Z,-4.24
2022-09-17T03:51:50.090Z,-4.25
2022-09-17T03:52:50.140Z,-4.24
2022-09-17T03:53:50.310Z,-4.23
2022-09-17T03:54:54.059Z,-4.23
2022-09-17T03:55:54.192Z,-4.20
2022-09-17T03:57:00.085Z,-4.16
2022-09-17T03:58:00.202Z,-4.16
2022-09-17T03:59:00.276Z,-4.16
2022-09-17T04:00:00.227Z,-4.14
2022-09-17T04:01:00.303Z,-4.13
2022-09-17T04:02:00.362Z,-4.10
2022-09-17T04:03:00.336Z,-4.12
2022-09-17T04:04:00.489Z,-4.12
2022-09-17T04:05:00.331Z,-4.17
2022-09-17T04:06:00.337Z,-4.20
2022-09-17T04:07:00.469Z,-4.17
2022-09-17T04:08:06.313Z,-4.24
2022-09-17T04:09:06.411Z,-4.27
2022-09-17T04:10:06.382Z,-4.30
2022-09-17T04:11:06.398Z,-4.35
2022-09-17T04:12:06.378Z,-4.38
2022-09-17T04:13:06.461Z,-4.41
2022-09-17T04:14:06.406Z,-4.43
2022-09-17T04:15:06.433Z,-4.46
2022-09-17T04:16:12.375Z,-4.50
2022-09-17T04:17:12.451Z,-4.52
2022-09-17T04:18:12.467Z,-4.53
2022-09-17T04:19:12.511Z,-4.55
2022-09-17T04:20:12.485Z,-4.58
2022-09-17T04:21:12.528Z,-4.58
2022-09-17T04:22:12.499Z,-4.63
2022-09-17T04:23:12.564Z,-4.65
2022-09-17T04:24:12.554Z,-4.66
2022-09-17T04:25:12.555Z,-4.67
2022-09-17T04:26:12.524Z,-4.69
2022-09-17T04:28:17.506Z,-4.71
2022-09-17T04:29:17.593Z,-4.73
2022-09-17T04:30:17.550Z,-4.74
2022-09-17T04:31:17.717Z,-4.78
2022-09-17T04:32:17.697Z,-4.75
2022-09-17T04:33:17.609Z,-4.76
2022-09-17T04:34:17.583Z,-4.78
2022-09-17T04:35:17.611Z,-4.78
2022-09-17T04:36:17.640Z,-4.80
2022-09-17T04:37:17.634Z,-4.79
2022-09-17T04:38:18.096Z,-4.76
2022-09-17T04:39:17.707Z,-4.73
2022-09-17T04:40:17.685Z,-4.68
2022-09-17T04:41:17.670Z,-4.65
2022-09-17T04:42:17.639Z,-4.59
2022-09-17T04:43:17.666Z,-4.56
2022-09-17T04:44:17.653Z,-4.55
2022-09-17T04:45:17.720Z,-4.53
2022-09-17T04:46:17.696Z,-4.50
2022-09-17T04:47:17.696Z,-4.48
2022-09-17T04:48:17.670Z,-4.44
2022-09-17T04:49:17.693Z,-4.48
2022-09-17T04:50:17.707Z,-4.46
2022-09-17T04:51:17.716Z,-4.50
2022-09-17T04:52:17.691Z,-4.50
2022-09-17T04:53:17.721Z,-4.50
2022-09-17T04:54:17.679Z,-4.49
2022-09-17T04:55:17.719Z,-4.50
2022-09-17T04:56:17.683Z,-4.50
2022-09-17T04:57:17.719Z,-4.51
2022-09-17T04:58:17.693Z,-4.51
2022-09-17T04:59:17.728Z,-4.50
2022-09-17T05:00:17.765Z,-4.49
2022-09-17T05:01:17.939Z,-4.46
2022-09-17T05:02:17.787Z,-4.46
2022-09-17T05:03:17.761Z,-4.43
2022-09-17T05:04:17.760Z,-4.44
2022-09-17T05:05:17.786Z,-4.45
2022-09-17T05:06:17.781Z,-4.44
2022-09-17T05:07:17.814Z,-4.43
2022-09-17T05:08:17.777Z,-4.46
2022-09-17T05:09:17.816Z,-4.46
2022-09-17T05:10:17.852Z,-4.48
2022-09-17T05:11:17.852Z,-4.46
2022-09-17T05:12:17.820Z,-4.49
2022-09-17T05:13:17.842Z,-4.48
2022-09-17T05:14:17.830Z,-4.53
2022-09-17T05:15:17.902Z,-4.52
2022-09-17T05:16:17.912Z,-4.50
2022-09-17T05:17:17.882Z,-4.53
2022-09-17T05:18:17.857Z,-4.57
2022-09-17T05:19:17.885Z,-4.61
2022-09-17T05:20:17.911Z,-4.61
2022-09-17T05:21:17.897Z,-4.61
2022-09-17T05:22:21.321Z,-4.63
2022-09-17T05:23:17.900Z,-4.63
2022-09-17T05:24:17.882Z,-4.64
2022-09-17T05:25:17.905Z,-4.63
2022-09-17T05:26:17.935Z,-4.61
2022-09-17T05:27:17.922Z,-4.61
2022-09-17T05:28:17.909Z,-4.64
2022-09-17T05:29:17.939Z,-4.60
2022-09-17T05:30:17.941Z,-4.57
2022-09-17T05:31:18.067Z,-4.57
2022-09-17T05:32:17.950Z,-4.55
2022-09-17T05:33:17.985Z,-4.51
2022-09-17T05:34:17.959Z,-4.46
2022-09-17T05:35:18.008Z,-4.44
2022-09-17T05:36:18.018Z,-4.43
2022-09-17T05:37:18.069Z,-4.40
2022-09-17T05:38:18.019Z,-4.37
2022-09-17T05:39:18.034Z,-4.38
2022-09-17T05:40:18.543Z,-4.39
2022-09-17T05:41:18.059Z,-4.41
2022-09-17T05:42:18.030Z,-4.40
2022-09-17T05:43:18.097Z,-4.41
2022-09-17T05:44:18.315Z,-4.39
2022-09-17T05:45:18.061Z,-4.39
2022-09-17T05:46:18.124Z,-4.39
2022-09-17T05:47:18.064Z,-4.39
2022-09-17T05:48:18.060Z,-4.40
2022-09-17T05:49:18.119Z,-4.41
2022-09-17T05:50:18.073Z,-4.43
2022-09-17T05:51:18.134Z,-4.45
2022-09-17T05:52:18.127Z,-4.48
2022-09-17T05:53:18.133Z,-4.49
2022-09-17T05:54:18.120Z,-4.51
2022-09-17T05:55:18.201Z,-4.51
2022-09-17T05:56:18.127Z,-4.55
2022-09-17T05:57:23.121Z,-4.55
2022-09-17T05:58:27.053Z,-4.57
2022-09-17T05:59:27.167Z,-4.58
2022-09-17T06:00:27.209Z,-4.57
2022-09-17T06:01:27.371Z,-4.58
2022-09-17T06:02:27.162Z,-4.60
2022-09-17T06:03:27.184Z,-4.61
2022-09-17T06:04:29.584Z,-4.64
2022-09-17T06:05:27.258Z,-4.65
2022-09-17T06:06:27.168Z,-4.65
2022-09-17T06:07:27.203Z,-4.67
2022-09-17T06:08:27.191Z,-4.68
2022-09-17T06:09:27.212Z,-4.67
2022-09-17T06:10:27.283Z,-4.67
2022-09-17T06:11:27.264Z,-4.68
2022-09-17T06:12:27.219Z,-4.69
2022-09-17T06:13:27.278Z,-4.68
2022-09-17T06:14:27.234Z,-4.66
2022-09-17T06:15:27.277Z,-4.69
2022-09-17T06:16:27.370Z,-4.70
2022-09-17T06:17:27.302Z,-4.68
2022-09-17T06:18:27.346Z,-4.69
2022-09-17T06:19:27.298Z,-4.68
2022-09-17T06:20:27.411Z,-4.69
2022-09-17T06:21:27.371Z,-4.69
2022-09-17T06:22:27.326Z,-4.70
2022-09-17T06:23:27.387Z,-4.70
2022-09-17T06:24:27.423Z,-4.68
2022-09-17T06:25:27.433Z,-4.67
2022-09-17T06:26:27.366Z,-4.65
2022-09-17T06:27:27.399Z,-4.59
2022-09-17T06:28:27.401Z,-4.55
2022-09-17T06:29:27.433Z,-4.51
2022-09-17T06:30:27.428Z,-4.45
2022-09-17T06:31:27.484Z,-4.39
2022-09-17T06:32:27.426Z,-4.30
2022-09-17T06:33:27.446Z,-4.19
2022-09-17T06:34:27.431Z,-4.14
2022-09-17T06:35:27.476Z,-4.10
2022-09-17T06:36:27.428Z,-4.01
2022-09-17T06:37:27.528Z,-3.99
2022-09-17T06:40:21.479Z,-3.97
2022-09-17T06:41:21.507Z,-4.00
2022-09-17T06:42:21.475Z,-4.01
2022-09-17T06:43:21.561Z,-4.05
2022-09-17T06:44:21.492Z,-4.05
2022-09-17T06:45:21.540Z,-4.06
2022-09-17T06:46:21.600Z,-4.08
2022-09-17T06:47:21.540Z,-4.09
2022-09-17T06:48:21.559Z,-4.10
2022-09-17T06:49:21.565Z,-4.09
2022-09-17T06:50:21.563Z,-4.12
2022-09-17T06:51:21.571Z,-4.12
2022-09-17T06:52:21.567Z,-4.14
2022-09-17T06:53:21.664Z,-4.13
2022-09-17T06:54:21.617Z,-4.16
2022-09-17T06:55:21.666Z,-4.21
2022-09-17T06:56:21.617Z,-4.28
2022-09-17T06:57:21.648Z,-4.32
2022-09-17T06:58:21.654Z,-4.31
2022-09-17T06:59:21.670Z,-4.32
2022-09-17T07:00:27.612Z,-4.32
2022-09-17T07:01:27.727Z,-4.29
2022-09-17T07:02:27.714Z,-4.34
2022-09-17T07:03:27.720Z,-4.34
2022-09-17T07:04:27.739Z,-4.32
2022-09-17T07:05:27.782Z,-4.29
2022-09-17T07:06:27.717Z,-4.30
2022-09-17T07:07:27.721Z,-4.27
2022-09-17T07:08:27.715Z,-4.26
2022-09-17T07:09:27.741Z,-4.24
2022-09-17T07:10:27.748Z,-4.24
2022-09-17T07:11:27.739Z,-4.29
2022-09-17T07:12:27.710Z,-4.32
2022-09-17T07:13:27.749Z,-4.36
2022-09-17T07:14:27.728Z,-4.39
2022-09-17T07:15:27.850Z,-4.41
2022-09-17T07:16:27.793Z,-4.40
2022-09-17T07:17:27.806Z,-4.42
2022-09-17T07:18:27.780Z,-4.38
2022-09-17T07:19:27.800Z,-4.36
2022-09-17T07:20:27.802Z,-4.32
2022-09-17T07:21:27.825Z,-4.24
2022-09-17T07:22:27.790Z,-4.16
2022-09-17T07:23:27.824Z,-4.08
2022-09-17T07:24:32.619Z,-4.02
2022-09-17T07:25:27.870Z,-3.97
2022-09-17T07:26:27.832Z,-3.94
2022-09-17T07:27:27.867Z,-3.94
2022-09-17T07:28:27.849Z,-3.92
2022-09-17T07:29:27.868Z,-3.92
2022-09-17T07:30:27.874Z,-3.92
2022-09-17T07:31:27.935Z,-3.92
2022-09-17T07:32:27.910Z,-3.92
2022-09-17T07:33:27.977Z,-3.91
2022-09-17T07:34:27.901Z,-3.90
2022-09-17T07:35:27.928Z,-3.87
2022-09-17T07:36:27.967Z,-3.87
2022-09-17T07:37:27.956Z,-3.83
2022-09-17T07:38:27.943Z,-3.84
2022-09-17T07:39:33.893Z,-3.89
2022-09-17T07:40:39.913Z,-3.87
2022-09-17T07:41:40.043Z,-3.87
2022-09-17T07:42:39.983Z,-3.82
2022-09-17T07:43:40.018Z,-3.77
2022-09-17T07:44:40.010Z,-3.76
2022-09-17T07:45:40.024Z,-3.70
2022-09-17T07:46:40.127Z,-3.66
2022-09-17T07:47:40.100Z,-3.61
2022-09-17T07:48:40.036Z,-3.66
2022-09-17T07:49:40.062Z,-3.68
2022-09-17T07:50:40.099Z,-3.64
2022-09-17T07:51:40.732Z,-3.64
2022-09-17T07:52:46.030Z,-3.62
2022-09-17T07:53:46.182Z,-3.64
2022-09-17T07:54:46.113Z,-3.63
2022-09-17T07:55:46.178Z,-3.63
2022-09-17T07:56:46.150Z,-3.61
2022-09-17T07:57:46.178Z,-3.61
2022-09-17T07:58:46.149Z,-3.60
2022-09-17T07:59:46.211Z,-3.60
2022-09-17T08:00:46.214Z,-3.62
2022-09-17T08:01:46.325Z,-3.62
2022-09-17T08:02:46.509Z,-3.62
2022-09-17T08:03:46.248Z,-3.61
2022-09-17T08:04:46.297Z,-3.60
2022-09-17T08:05:46.377Z,-3.54
2022-09-17T08:06:46.277Z,-3.53
2022-09-17T08:07:46.307Z,-3.51
2022-09-17T08:08:46.310Z,-3.51
2022-09-17T08:09:46.324Z,-3.49
2022-09-17T08:10:46.374Z,-3.50
2022-09-17T08:11:56.351Z,-3.52
2022-09-17T08:12:46.408Z,-3.51
2022-09-17T08:13:46.442Z,-3.50
2022-09-17T08:14:46.408Z,-3.48
2022-09-17T08:15:46.484Z,-3.47
2022-09-17T08:16:46.453Z,-3.45
2022-09-17T08:17:46.466Z,-3.38
2022-09-17T08:18:46.477Z,-3.38
2022-09-17T08:19:46.564Z,-3.32
2022-09-17T08:20:51.553Z,-3.28
2022-09-17T08:21:51.639Z,-3.26
2022-09-17T08:22:51.568Z,-3.23
2022-09-17T08:23:51.608Z,-3.18
2022-09-17T08:24:51.648Z,-3.13
2022-09-17T08:25:51.661Z,-3.10
2022-09-17T08:26:51.684Z,-3.07
2022-09-17T08:27:51.694Z,-3.08
2022-09-17T08:28:51.694Z,-3.11
2022-09-17T08:29:51.774Z,-3.16
2022-09-17T08:30:51.846Z,-3.18
2022-09-17T08:31:51.844Z,-3.21
2022-09-17T08:32:51.808Z,-3.18
2022-09-17T08:33:51.844Z,-3.16
2022-09-17T08:34:51.849Z,-3.12
2022-09-17T08:35:51.908Z,-3.09
2022-09-17T08:36:51.907Z,-3.05
2022-09-17T08:37:51.937Z,-3.00
2022-09-17T08:38:52.025Z,-2.97
2022-09-17T08:39:52.017Z,-2.97
2022-09-17T08:40:52.056Z,-2.95
2022-09-17T08:41:52.037Z,-2.97
2022-09-17T08:42:52.044Z,-3.02
2022-09-17T08:43:52.120Z,-3.04
2022-09-17T08:44:52.686Z,-3.06
2022-09-17T08:45:52.220Z,-3.05
2022-09-17T08:46:52.291Z,-3.10
2022-09-17T08:47:52.220Z,-3.10
2022-09-17T08:48:52.199Z,-3.15
2022-09-17T08:49:52.315Z,-3.16
2022-09-17T08:50:52.303Z,-3.18
2022-09-17T08:51:52.354Z,-3.19
2022-09-17T08:52:52.305Z,-3.18
2022-09-17T08:53:58.251Z,-3.16
2022-09-17T08:55:02.343Z,-3.12
2022-09-17T08:56:02.414Z,-3.07
2022-09-17T08:57:02.406Z,-3.05
2022-09-17T08:58:02.410Z,-2.96
2022-09-17T08:59:02.414Z,-2.91
2022-09-17T09:00:02.497Z,-2.87
2022-09-17T09:01:02.462Z,-2.82
2022-09-17T09:02:02.606Z,-2.79
2022-09-17T09:03:02.507Z,-2.74
2022-09-17T09:04:02.909Z,-2.69
2022-09-17T09:05:07.417Z,-2.66
2022-09-17T09:06:10.866Z,-2.69
2022-09-17T09:07:07.521Z,-2.69
2022-09-17T09:08:07.527Z,-2.71
2022-09-17T09:09:07.529Z,-2.71
2022-09-17T09:10:07.618Z,-2.72
2022-09-17T09:11:07.601Z,-2.72
2022-09-17T09:12:07.607Z,-2.76
2022-09-17T09:13:07.616Z,-2.81
2022-09-17T09:14:07.649Z,-2.89
2022-09-17T09:15:07.662Z,-2.92
2022-09-17T09:16:07.773Z,-2.97
2022-09-17T09:17:07.679Z,-3.00
2022-09-17T09:18:07.725Z,-3.00
2022-09-17T09:19:12.697Z,-3.00
2022-09-17T09:20:07.800Z,-2.97
2022-09-17T09:21:07.752Z,-3.02
2022-09-17T09:22:07.794Z,-3.00
2022-09-17T09:23:07.791Z,-3.01
2022-09-17T09:24:07.842Z,-2.97
2022-09-17T09:25:07.868Z,-2.95
2022-09-17T09:26:07.865Z,-3.00
2022-09-17T09:27:07.846Z,-3.03
2022-09-17T09:28:07.932Z,-3.04
2022-09-17T09:29:07.864Z,-3.04
2022-09-17T09:30:07.941Z,-3.04
2022-09-17T09:31:07.962Z,-3.03
2022-09-17T09:32:15.823Z,-3.04
2022-09-17T09:33:07.938Z,-3.05
2022-09-17T09:34:07.998Z,-3.08
2022-09-17T09:35:07.989Z,-3.08
2022-09-17T09:36:08.019Z,-3.12
2022-09-17T09:37:08.043Z,-3.16
2022-09-17T09:38:08.051Z,-3.17
2022-09-17T09:39:08.062Z,-3.21
2022-09-17T09:40:08.207Z,-3.23
2022-09-17T09:41:08.078Z,-3.28
2022-09-17T09:42:08.125Z,-3.33
2022-09-17T09:43:08.096Z,-3.34
2022-09-17T09:44:08.134Z,-3.33
2022-09-17T09:45:08.170Z,-3.32
2022-09-17T09:46:08.240Z,-3.30
2022-09-17T09:47:08.164Z,-3.28
2022-09-17T09:48:08.233Z,-3.24
2022-09-17T09:49:08.185Z,-3.22
2022-09-17T09:50:09.240Z,-3.18
2022-09-17T09:51:09.203Z,-3.15
2022-09-17T09:52:09.246Z,-3.18
2022-09-17T09:53:09.218Z,-3.17
2022-09-17T09:54:14.146Z,-3.18
2022-09-17T09:55:22.222Z,-3.18
2022-09-17T09:56:19.281Z,-3.18
2022-09-17T09:57:19.232Z,-3.19
2022-09-17T09:58:19.276Z,-3.17
2022-09-17T09:59:19.270Z,-3.19
2022-09-17T10:00:19.319Z,-3.16
2022-09-17T10:01:19.856Z,-3.11
2022-09-17T10:02:19.446Z,-3.03
2022-09-17T10:03:19.294Z,-2.98
2022-09-17T10:04:24.216Z,-2.91
2022-09-17T10:05:28.294Z,-2.86
2022-09-17T10:06:28.364Z,-2.74
2022-09-17T10:07:28.375Z,-2.63
2022-09-17T10:08:28.363Z,-2.61
2022-09-17T10:09:28.375Z,-2.58
2022-09-17T10:10:28.408Z,-2.53
2022-09-17T10:11:28.397Z,-2.53
2022-09-17T10:12:28.437Z,-2.60
2022-09-17T10:13:28.407Z,-2.65
2022-09-17T10:14:32.360Z,-2.72
2022-09-17T10:15:32.468Z,-2.75
2022-09-17T10:16:32.526Z,-2.76
2022-09-17T10:17:37.377Z,-2.73
2022-09-17T10:18:37.520Z,-2.75
2022-09-17T10:19:37.501Z,-2.73
2022-09-17T10:20:37.559Z,-2.72
2022-09-17T10:21:37.516Z,-2.71
2022-09-17T10:22:37.575Z,-2.72
2022-09-17T10:23:37.551Z,-2.69
2022-09-17T10:24:37.595Z,-2.65
2022-09-17T10:25:37.610Z,-2.62
2022-09-17T10:26:37.629Z,-2.57
2022-09-17T10:27:37.599Z,-2.56
2022-09-17T10:28:37.640Z,-2.54
2022-09-17T10:29:37.629Z,-2.50
2022-09-17T10:30:37.717Z,-2.50
2022-09-17T10:31:37.724Z,-2.54
2022-09-17T10:32:37.699Z,-2.60
2022-09-17T10:33:37.687Z,-2.62
2022-09-17T10:34:37.709Z,-2.67
2022-09-17T10:35:37.757Z,-2.71
2022-09-17T10:36:38.176Z,-2.80
2022-09-17T10:37:37.764Z,-2.83
2022-09-17T10:38:37.789Z,-2.89
2022-09-17T10:39:37.789Z,-2.94
2022-09-17T10:40:37.976Z,-2.94
2022-09-17T10:41:37.819Z,-3.01
2022-09-17T10:42:37.872Z,-3.04
2022-09-17T10:43:37.880Z,-3.03
2022-09-17T10:44:43.782Z,-3.04
2022-09-17T10:45:48.843Z,-3.03
2022-09-17T10:46:48.997Z,-3.05
2022-09-17T10:47:49.085Z,-3.04
2022-09-17T10:48:53.913Z,-2.96
2022-09-17T10:49:54.034Z,-2.95
2022-09-17T10:50:54.003Z,-2.91
2022-09-17T10:51:54.037Z,-2.84
2022-09-17T10:52:54.036Z,-2.81
2022-09-17T10:53:58.997Z,-2.71
2022-09-17T10:54:59.074Z,-2.65
2022-09-17T10:55:59.074Z,-2.57
2022-09-17T10:56:59.094Z,-2.52
2022-09-17T10:57:59.132Z,-2.50
2022-09-17T10:58:59.176Z,-2.48
2022-09-17T10:59:59.115Z,-2.44
2022-09-17T11:00:59.178Z,-2.39
2022-09-17T11:01:59.244Z,-2.39
2022-09-17T11:02:59.284Z,-2.38
2022-09-17T11:05:53.169Z,-2.37
2022-09-17T11:06:53.299Z,-2.30
2022-09-17T11:07:53.246Z,-2.33
2022-09-17T11:08:53.316Z,-2.35
2022-09-17T11:09:53.285Z,-2.41
2022-09-17T11:10:53.401Z,-2.43
2022-09-17T11:11:53.319Z,-2.49
2022-09-17T11:12:53.361Z,-2.51
2022-09-17T11:13:53.355Z,-2.56
2022-09-17T11:14:53.401Z,-2.59
2022-09-17T11:15:54.624Z,-2.59
2022-09-17T11:16:53.559Z,-2.60
2022-09-17T11:17:53.445Z,-2.63
2022-09-17T11:18:53.519Z,-2.67
2022-09-17T11:19:53.479Z,-2.76
2022-09-17T11:20:53.519Z,-2.87
2022-09-17T11:21:53.545Z,-2.88
2022-09-17T11:22:53.550Z,-2.95
2022-09-17T11:23:53.542Z,-3.05
2022-09-17T11:24:53.586Z,-3.13
2022-09-17T11:25:57.181Z,-3.18
2022-09-17T11:26:53.788Z,-3.23
2022-09-17T11:27:53.630Z,-3.24
2022-09-17T11:28:53.673Z,-3.26
2022-09-17T11:29:53.681Z,-3.21
2022-09-17T11:30:53.794Z,-3.13
2022-09-17T11:31:53.774Z,-3.04
2022-09-17T11:32:53.806Z,-2.91
2022-09-17T11:33:53.712Z,-2.80
2022-09-17T11:34:53.753Z,-2.73
2022-09-17T11:35:53.849Z,-2.64
2022-09-17T11:36:58.808Z,-2.56
2022-09-17T11:38:03.811Z,-2.50
2022-09-17T11:39:03.841Z,-2.43
2022-09-17T11:40:03.909Z,-2.44
2022-09-17T11:41:03.873Z,-2.45
2022-09-17T11:42:03.841Z,-2.44
2022-09-17T11:43:04.008Z,-2.49
2022-09-17T11:44:03.873Z,-2.53
2022-09-17T11:45:03.923Z,-2.52
2022-09-17T11:46:08.951Z,-2.53
2022-09-17T11:47:08.968Z,-2.54
2022-09-17T11:48:08.978Z,-2.54
2022-09-17T11:49:08.974Z,-2.53
2022-09-17T11:50:13.949Z,-2.52
2022-09-17T11:51:13.999Z,-2.48
2022-09-17T11:52:14.030Z,-2.47
2022-09-17T11:53:14.064Z,-2.41
2022-09-17T11:54:14.223Z,-2.37
2022-09-17T11:55:14.117Z,-2.33
2022-09-17T11:56:16.146Z,-2.30
2022-09-17T11:57:14.147Z,-2.28
2022-09-17T11:58:14.156Z,-2.23
2022-09-17T11:59:14.167Z,-2.24
2022-09-17T12:00:14.168Z,-2.23
2022-09-17T12:01:14.184Z,-2.21
2022-09-17T12:02:14.231Z,-2.20
2022-09-17T12:03:14.384Z,-2.20
2022-09-17T12:04:14.232Z,-2.19
2022-09-17T12:05:14.280Z,-2.15
2022-09-17T12:06:14.291Z,-2.09
2022-09-17T12:07:19.334Z,-1.97
2022-09-17T12:08:24.300Z,-1.84
2022-09-17T12:09:24.382Z,-1.75
2022-09-17T12:10:24.395Z,-1.69
2022-09-17T12:11:24.455Z,-1.69
2022-09-17T12:12:47.899Z,-1.69
2022-09-17T12:13:24.613Z,-1.74
2022-09-17T12:14:24.490Z,-1.92
2022-09-17T12:15:24.554Z,-2.01
2022-09-17T12:16:24.598Z,-2.12
2022-09-17T12:17:24.742Z,-2.20
2022-09-17T12:18:32.146Z,-2.33
2022-09-17T12:19:24.680Z,-2.36
2022-09-17T12:20:24.673Z,-2.45
2022-09-17T12:21:24.710Z,-2.52
2022-09-17T12:22:24.716Z,-2.56
2022-09-17T12:23:24.764Z,-2.59
2022-09-17T12:24:24.803Z,-2.57
2022-09-17T12:25:24.816Z,-2.52
2022-09-17T12:26:24.825Z,-2.48
2022-09-17T12:27:25.007Z,-2.45
2022-09-17T12:28:24.876Z,-2.49
2022-09-17T12:29:25.017Z,-2.48
2022-09-17T12:30:24.932Z,-2.52
2022-09-17T12:31:25.443Z,-2.52
2022-09-17T12:32:29.894Z,-2.57
2022-09-17T12:33:30.009Z,-2.57
2022-09-17T12:34:30.134Z,-2.58
2022-09-17T12:35:59.769Z,-2.59
2022-09-17T12:36:35.005Z,-2.65
2022-09-17T12:37:35.248Z,-2.66
2022-09-17T12:38:35.127Z,-2.67
2022-09-17T12:39:35.261Z,-2.66
2022-09-17T12:40:35.249Z,-2.67
2022-09-17T12:41:35.198Z,-2.66
2022-09-17T12:42:35.188Z,-2.67
2022-09-17T12:43:35.265Z,-2.67
2022-09-17T12:44:35.234Z,-2.61
2022-09-17T12:45:35.321Z,-2.56
2022-09-17T12:46:35.299Z,-2.47
2022-09-17T12:47:35.347Z,-2.37
2022-09-17T12:48:35.304Z,-2.30
2022-09-17T12:49:35.350Z,-2.26
2022-09-17T12:50:35.356Z,-2.23
2022-09-17T12:51:35.519Z,-2.29
2022-09-17T12:52:35.377Z,-2.35
2022-09-17T12:53:35.429Z,-2.45
2022-09-17T12:54:35.440Z,-2.54
2022-09-17T12:55:35.477Z,-2.58
2022-09-17T12:56:35.492Z,-2.63
2022-09-17T12:57:35.621Z,-2.67
2022-09-17T12:58:35.534Z,-2.64
2022-09-17T12:59:41.467Z,-2.65
2022-09-17T13:00:41.629Z,-2.62
2022-09-17T13:02:46.657Z,-2.54
2022-09-17T13:03:46.667Z,-2.49
2022-09-17T13:05:00.507Z,-2.43
2022-09-17T13:05:46.711Z,-2.41